Terminal Aerodrome Forecast
Issued by NWS

Home | Current Version | Previous Version | Text Only | Print | Product List | Glossary On
Versions: 1 2 3 4 5 6 7 8 9 10 11 12 13 14 15 16 17 18
000
FTUS43 KEAX 200500
TAFMKC
TAF
KMKC 200520Z 2006/2106 17007KT P6SM SCT150
     FM201900 20013KT P6SM SCT070=

USA.gov is the U.S. government's official web portal to all federal, state and local government web resources and services.